sensor_id;sensor_type;location;lat;lon;timestamp;pressure;altitude;pressure_sealevel;temperature;humidity
30819;BME280;17546;42.674;23.284;2022-11-15T00:00:07;95321.03;;;13.63;43.16
30819;BME280;17546;42.674;23.284;2022-11-15T00:02:33;95315.94;;;13.50;43.53
30819;BME280;17546;42.674;23.284;2022-11-15T00:04:58;95313.63;;;13.43;43.60
30819;BME280;17546;42.674;23.284;2022-11-15T00:07:23;95307.81;;;13.47;43.45
30819;BME280;17546;42.674;23.284;2022-11-15T00:09:49;95315.91;;;13.44;43.33
30819;BME280;17546;42.674;23.284;2022-11-15T00:12:14;95310.50;;;13.18;43.96
30819;BME280;17546;42.674;23.284;2022-11-15T00:14:40;95308.16;;;13.06;44.16
30819;BME280;17546;42.674;23.284;2022-11-15T00:17:05;95294.03;;;13.15;43.87
30819;BME280;17546;42.674;23.284;2022-11-15T00:19:30;95295.31;;;13.19;43.63
30819;BME280;17546;42.674;23.284;2022-11-15T00:21:56;95297.59;;;13.21;43.65
30819;BME280;17546;42.674;23.284;2022-11-15T00:24:21;95298.81;;;13.03;44.14
30819;BME280;17546;42.674;23.284;2022-11-15T00:26:47;95294.53;;;13.08;43.89
30819;BME280;17546;42.674;23.284;2022-11-15T00:29:12;95295.78;;;13.07;43.81
30819;BME280;17546;42.674;23.284;2022-11-15T00:31:38;95286.19;;;13.08;43.90
30819;BME280;17546;42.674;23.284;2022-11-15T00:34:03;95274.78;;;13.06;43.95
30819;BME280;17546;42.674;23.284;2022-11-15T00:36:28;95281.06;;;13.00;43.98
30819;BME280;17546;42.674;23.284;2022-11-15T00:39:04;95284.38;;;13.05;43.96
30819;BME280;17546;42.674;23.284;2022-11-15T00:41:31;95282.38;;;13.11;43.86
30819;BME280;17546;42.674;23.284;2022-11-15T00:43:56;95289.72;;;13.14;43.90
30819;BME280;17546;42.674;23.284;2022-11-15T00:46:22;95280.88;;;13.10;43.96
30819;BME280;17546;42.674;23.284;2022-11-15T00:48:47;95280.38;;;13.11;43.89
30819;BME280;17546;42.674;23.284;2022-11-15T00:51:12;95285.16;;;13.11;43.94
30819;BME280;17546;42.674;23.284;2022-11-15T00:53:38;95283.41;;;13.08;43.99
30819;BME280;17546;42.674;23.284;2022-11-15T00:56:03;95278.09;;;13.10;43.93
30819;BME280;17546;42.674;23.284;2022-11-15T00:58:29;95276.31;;;13.07;43.91
30819;BME280;17546;42.674;23.284;2022-11-15T01:00:54;95279.84;;;13.01;44.14
30819;BME280;17546;42.674;23.284;2022-11-15T01:03:20;95274.50;;;12.92;44.21
30819;BME280;17546;42.674;23.284;2022-11-15T01:05:45;95273.72;;;12.92;44.17
30819;BME280;17546;42.674;23.284;2022-11-15T01:08:15;95272.97;;;12.91;44.16
30819;BME280;17546;42.674;23.284;2022-11-15T01:10:41;95273.75;;;12.97;43.79
30819;BME280;17546;42.674;23.284;2022-11-15T01:13:07;95273.97;;;12.88;44.09
30819;BME280;17546;42.674;23.284;2022-11-15T01:15:33;95262.75;;;12.71;44.18
30819;BME280;17546;42.674;23.284;2022-11-15T01:17:58;95266.91;;;12.93;43.90
30819;BME280;17546;42.674;23.284;2022-11-15T01:20:24;95275.22;;;12.87;44.23
30819;BME280;17546;42.674;23.284;2022-11-15T01:22:49;95274.75;;;12.94;43.83
30819;BME280;17546;42.674;23.284;2022-11-15T01:25:15;95266.88;;;12.87;43.91
30819;BME280;17546;42.674;23.284;2022-11-15T01:27:40;95267.69;;;12.99;43.51
30819;BME280;17546;42.674;23.284;2022-11-15T01:30:06;95263.13;;;12.96;43.66
30819;BME280;17546;42.674;23.284;2022-11-15T01:32:31;95272.25;;;12.96;43.65
30819;BME280;17546;42.674;23.284;2022-11-15T01:34:57;95267.66;;;12.93;43.70
30819;BME280;17546;42.674;23.284;2022-11-15T01:37:22;95258.81;;;12.95;43.90
30819;BME280;17546;42.674;23.284;2022-11-15T01:39:48;95260.88;;;13.06;43.48
30819;BME280;17546;42.674;23.284;2022-11-15T01:42:13;95261.38;;;13.04;43.60
30819;BME280;17546;42.674;23.284;2022-11-15T01:44:49;95264.19;;;13.10;43.55
30819;BME280;17546;42.674;23.284;2022-11-15T01:47:31;95259.88;;;13.03;43.48
30819;BME280;17546;42.674;23.284;2022-11-15T01:50:21;95264.44;;;13.06;43.60
30819;BME280;17546;42.674;23.284;2022-11-15T01:52:47;95261.41;;;13.10;43.53
30819;BME280;17546;42.674;23.284;2022-11-15T01:55:20;95262.16;;;13.16;43.24
30819;BME280;17546;42.674;23.284;2022-11-15T01:57:48;95255.84;;;13.10;43.54
30819;BME280;17546;42.674;23.284;2022-11-15T02:00:15;95265.94;;;13.07;43.61
30819;BME280;17546;42.674;23.284;2022-11-15T02:02:40;95255.78;;;12.98;43.51
30819;BME280;17546;42.674;23.284;2022-11-15T02:05:06;95255.28;;;13.00;43.55
30819;BME280;17546;42.674;23.284;2022-11-15T02:07:34;95254.81;;;13.01;43.34
30819;BME280;17546;42.674;23.284;2022-11-15T02:10:06;95260.59;;;12.98;43.29
30819;BME280;17546;42.674;23.284;2022-11-15T02:12:32;95251.28;;;13.01;43.33
30819;BME280;17546;42.674;23.284;2022-11-15T02:14:59;95251.50;;;12.97;43.35
30819;BME280;17546;42.674;23.284;2022-11-15T02:17:38;95254.25;;;12.92;43.61
30819;BME280;17546;42.674;23.284;2022-11-15T02:20:14;95257.25;;;12.77;43.76
30819;BME280;17546;42.674;23.284;2022-11-15T02:26:07;95254.50;;;12.88;43.51
30819;BME280;17546;42.674;23.284;2022-11-15T02:31:45;95256.66;;;12.61;44.15
30819;BME280;17546;42.674;23.284;2022-11-15T02:34:26;95244.31;;;12.74;43.70
30819;BME280;17546;42.674;23.284;2022-11-15T02:37:08;95246.06;;;12.66;43.87
30819;BME280;17546;42.674;23.284;2022-11-15T02:39:50;95244.09;;;12.77;43.68
30819;BME280;17546;42.674;23.284;2022-11-15T02:42:25;95241.81;;;12.76;43.76
30819;BME280;17546;42.674;23.284;2022-11-15T02:45:13;95244.59;;;12.76;43.80
30819;BME280;17546;42.674;23.284;2022-11-15T02:47:58;95245.53;;;12.61;44.27
30819;BME280;17546;42.674;23.284;2022-11-15T02:50:27;95240.19;;;12.52;44.55
30819;BME280;17546;42.674;23.284;2022-11-15T02:52:53;95248.59;;;12.64;44.51
30819;BME280;17546;42.674;23.284;2022-11-15T03:03:37;95262.97;;;12.62;44.82
30819;BME280;17546;42.674;23.284;2022-11-15T03:06:42;95259.00;;;12.80;44.73
30819;BME280;17546;42.674;23.284;2022-11-15T03:11:59;95252.00;;;12.90;44.52
30819;BME280;17546;42.674;23.284;2022-11-15T03:14:37;95248.47;;;12.95;44.46
30819;BME280;17546;42.674;23.284;2022-11-15T03:17:18;95250.50;;;13.00;44.30
30819;BME280;17546;42.674;23.284;2022-11-15T03:19:54;95246.47;;;13.01;44.25
30819;BME280;17546;42.674;23.284;2022-11-15T03:22:23;95241.41;;;13.06;44.24
30819;BME280;17546;42.674;23.284;2022-11-15T03:24:54;95234.03;;;12.91;44.61
30819;BME280;17546;42.674;23.284;2022-11-15T03:27:23;95248.47;;;12.95;44.79
30819;BME280;17546;42.674;23.284;2022-11-15T03:29:54;95239.88;;;13.05;44.71
30819;BME280;17546;42.674;23.284;2022-11-15T03:32:23;95238.38;;;13.03;44.73
30819;BME280;17546;42.674;23.284;2022-11-15T03:34:58;95238.91;;;13.08;44.59
30819;BME280;17546;42.674;23.284;2022-11-15T03:37:57;95230.31;;;13.17;44.54
30819;BME280;17546;42.674;23.284;2022-11-15T03:46:13;95217.44;;;13.25;44.48
30819;BME280;17546;42.674;23.284;2022-11-15T03:48:44;95215.69;;;13.28;44.67
30819;BME280;17546;42.674;23.284;2022-11-15T03:51:12;95217.72;;;13.33;44.58
30819;BME280;17546;42.674;23.284;2022-11-15T03:53:38;95216.47;;;13.39;44.48
30819;BME280;17546;42.674;23.284;2022-11-15T03:56:05;95215.47;;;13.37;44.43
30819;BME280;17546;42.674;23.284;2022-11-15T03:58:31;95211.69;;;13.46;44.16
30819;BME280;17546;42.674;23.284;2022-11-15T04:00:56;95210.94;;;13.45;44.28
30819;BME280;17546;42.674;23.284;2022-11-15T04:03:22;95213.19;;;13.35;44.73
30819;BME280;17546;42.674;23.284;2022-11-15T04:05:47;95211.16;;;13.41;44.76
30819;BME280;17546;42.674;23.284;2022-11-15T04:08:12;95216.97;;;13.32;45.31
30819;BME280;17546;42.674;23.284;2022-11-15T04:10:38;95211.16;;;13.30;45.42
30819;BME280;17546;42.674;23.284;2022-11-15T04:13:04;95211.66;;;13.40;45.42
30819;BME280;17546;42.674;23.284;2022-11-15T04:15:29;95210.13;;;13.33;45.46
30819;BME280;17546;42.674;23.284;2022-11-15T04:17:56;95202.25;;;13.20;46.12
30819;BME280;17546;42.674;23.284;2022-11-15T04:20:28;95202.00;;;13.18;46.46
30819;BME280;17546;42.674;23.284;2022-11-15T04:23:15;95203.53;;;13.25;46.38
30819;BME280;17546;42.674;23.284;2022-11-15T04:26:03;95206.09;;;13.34;46.25
30819;BME280;17546;42.674;23.284;2022-11-15T04:28:29;95207.34;;;13.33;46.24
30819;BME280;17546;42.674;23.284;2022-11-15T04:30:55;95205.03;;;13.20;46.60
30819;BME280;17546;42.674;23.284;2022-11-15T04:33:21;95204.56;;;13.33;46.52
30819;BME280;17546;42.674;23.284;2022-11-15T04:35:47;95208.91;;;13.34;46.45
30819;BME280;17546;42.674;23.284;2022-11-15T04:38:32;95198.44;;;13.18;46.35
30819;BME280;17546;42.674;23.284;2022-11-15T04:40:57;95207.06;;;13.20;46.67
30819;BME280;17546;42.674;23.284;2022-11-15T04:43:23;95207.81;;;13.20;46.53
30819;BME280;17546;42.674;23.284;2022-11-15T04:45:48;95211.56;;;13.00;46.78
30819;BME280;17546;42.674;23.284;2022-11-15T04:48:14;95208.25;;;12.91;47.15
30819;BME280;17546;42.674;23.284;2022-11-15T04:50:39;95207.81;;;13.15;46.71
30819;BME280;17546;42.674;23.284;2022-11-15T04:53:04;95202.00;;;13.13;46.80
30819;BME280;17546;42.674;23.284;2022-11-15T04:55:31;95209.06;;;13.14;46.71
30819;BME280;17546;42.674;23.284;2022-11-15T04:58:00;95208.56;;;13.10;46.82
30819;BME280;17546;42.674;23.284;2022-11-15T05:00:26;95207.00;;;12.97;47.19
30819;BME280;17546;42.674;23.284;2022-11-15T05:02:52;95212.56;;;12.97;47.10
30819;BME280;17546;42.674;23.284;2022-11-15T05:05:37;95212.84;;;13.11;46.90
30819;BME280;17546;42.674;23.284;2022-11-15T05:08:03;95200.72;;;13.14;47.13
30819;BME280;17546;42.674;23.284;2022-11-15T05:10:28;95218.66;;;13.07;47.12
30819;BME280;17546;42.674;23.284;2022-11-15T05:12:54;95218.94;;;13.15;46.87
30819;BME280;17546;42.674;23.284;2022-11-15T05:15:19;95206.75;;;12.95;47.19
30819;BME280;17546;42.674;23.284;2022-11-15T05:17:45;95220.19;;;13.14;46.77
30819;BME280;17546;42.674;23.284;2022-11-15T05:20:11;95206.25;;;12.97;47.32
30819;BME280;17546;42.674;23.284;2022-11-15T05:22:36;95199.13;;;12.79;47.95
30819;BME280;17546;42.674;23.284;2022-11-15T05:25:02;95202.16;;;12.87;47.64
30819;BME280;17546;42.674;23.284;2022-11-15T05:27:28;95205.44;;;12.85;47.77
30819;BME280;17546;42.674;23.284;2022-11-15T05:29:53;95197.06;;;12.68;48.21
30819;BME280;17546;42.674;23.284;2022-11-15T05:32:18;95198.88;;;12.77;48.14
30819;BME280;17546;42.674;23.284;2022-11-15T05:34:44;95198.38;;;12.84;47.83
30819;BME280;17546;42.674;23.284;2022-11-15T05:37:10;95207.97;;;12.83;48.07
30819;BME280;17546;42.674;23.284;2022-11-15T05:39:36;95195.09;;;12.86;47.94
30819;BME280;17546;42.674;23.284;2022-11-15T05:42:21;95199.94;;;12.96;47.81
30819;BME280;17546;42.674;23.284;2022-11-15T05:44:48;95202.47;;;13.00;47.86
30819;BME280;17546;42.674;23.284;2022-11-15T05:47:23;95198.63;;;12.86;48.01
30819;BME280;17546;42.674;23.284;2022-11-15T05:49:50;95200.16;;;12.98;47.91
30819;BME280;17546;42.674;23.284;2022-11-15T05:52:19;95205.03;;;13.15;47.69
30819;BME280;17546;42.674;23.284;2022-11-15T05:54:46;95208.59;;;13.21;47.48
30819;BME280;17546;42.674;23.284;2022-11-15T05:57:11;95208.88;;;13.29;47.20
30819;BME280;17546;42.674;23.284;2022-11-15T05:59:37;95215.47;;;13.37;47.02
30819;BME280;17546;42.674;23.284;2022-11-15T06:02:03;95206.09;;;13.34;47.18
30819;BME280;17546;42.674;23.284;2022-11-15T06:04:28;95211.91;;;13.31;47.41
30819;BME280;17546;42.674;23.284;2022-11-15T06:06:54;95209.31;;;13.10;47.72
30819;BME280;17546;42.674;23.284;2022-11-15T06:09:19;95217.31;;;12.74;48.43
30819;BME280;17546;42.674;23.284;2022-11-15T06:11:45;95212.25;;;12.73;48.51
30819;BME280;17546;42.674;23.284;2022-11-15T06:14:10;95225.22;;;12.38;49.42
30819;BME280;17546;42.674;23.284;2022-11-15T06:16:35;95212.94;;;12.13;50.01
30819;BME280;17546;42.674;23.284;2022-11-15T06:19:01;95216.59;;;12.36;49.56
30819;BME280;17546;42.674;23.284;2022-11-15T06:21:26;95215.31;;;12.32;49.86
30819;BME280;17546;42.674;23.284;2022-11-15T06:23:53;95222.19;;;12.42;49.33
30819;BME280;17546;42.674;23.284;2022-11-15T06:26:19;95219.91;;;12.35;49.66
30819;BME280;17546;42.674;23.284;2022-11-15T06:28:44;95215.31;;;12.32;49.43
30819;BME280;17546;42.674;23.284;2022-11-15T06:31:10;95211.88;;;12.48;49.22
30819;BME280;17546;42.674;23.284;2022-11-15T06:33:37;95203.34;;;12.57;49.37
30819;BME280;17546;42.674;23.284;2022-11-15T06:36:05;95203.81;;;12.50;49.49
30819;BME280;17546;42.674;23.284;2022-11-15T06:38:31;95206.63;;;12.61;49.23
30819;BME280;17546;42.674;23.284;2022-11-15T06:41:04;95205.94;;;12.78;49.20
30819;BME280;17546;42.674;23.284;2022-11-15T06:43:30;95202.59;;;12.63;49.13
30819;BME280;17546;42.674;23.284;2022-11-15T06:46:01;95210.78;;;12.89;48.82
30819;BME280;17546;42.674;23.284;2022-11-15T06:48:28;95203.69;;;12.93;48.64
30819;BME280;17546;42.674;23.284;2022-11-15T06:50:55;95206.00;;;13.00;48.50
30819;BME280;17546;42.674;23.284;2022-11-15T06:53:20;95208.31;;;13.13;48.30
30819;BME280;17546;42.674;23.284;2022-11-15T06:55:46;95214.56;;;12.91;48.76
30819;BME280;17546;42.674;23.284;2022-11-15T06:58:12;95205.44;;;12.85;48.76
30819;BME280;17546;42.674;23.284;2022-11-15T07:00:38;95206.94;;;12.75;48.88
30819;BME280;17546;42.674;23.284;2022-11-15T07:03:04;95205.75;;;13.04;48.36
30819;BME280;17546;42.674;23.284;2022-11-15T07:05:30;95204.28;;;13.14;48.41
30819;BME280;17546;42.674;23.284;2022-11-15T07:07:56;95201.25;;;13.12;48.29
30819;BME280;17546;42.674;23.284;2022-11-15T07:10:23;95204.00;;;13.18;48.12
30819;BME280;17546;42.674;23.284;2022-11-15T07:12:54;95196.28;;;12.62;49.45
30819;BME280;17546;42.674;23.284;2022-11-15T07:15:25;95197.19;;;13.08;48.20
30819;BME280;17546;42.674;23.284;2022-11-15T07:17:51;95197.69;;;13.12;48.12
30819;BME280;17546;42.674;23.284;2022-11-15T07:20:16;95200.22;;;13.10;48.14
30819;BME280;17546;42.674;23.284;2022-11-15T07:22:43;95187.31;;;13.18;47.96
30819;BME280;17546;42.674;23.284;2022-11-15T07:25:10;95199.00;;;13.28;47.84
30819;BME280;17546;42.674;23.284;2022-11-15T07:27:36;95202.81;;;13.30;47.48
30819;BME280;17546;42.674;23.284;2022-11-15T07:30:02;95202.25;;;13.26;47.36
30819;BME280;17546;42.674;23.284;2022-11-15T07:32:27;95202.31;;;13.32;47.21
30819;BME280;17546;42.674;23.284;2022-11-15T07:34:53;95209.13;;;13.42;47.03
30819;BME280;17546;42.674;23.284;2022-11-15T07:37:19;95209.31;;;13.10;47.72
30819;BME280;17546;42.674;23.284;2022-11-15T07:39:44;95206.06;;;13.23;47.55
30819;BME280;17546;42.674;23.284;2022-11-15T07:42:10;95203.31;;;13.40;47.17
30819;BME280;17546;42.674;23.284;2022-11-15T07:44:54;95203.56;;;13.53;46.70
30819;BME280;17546;42.674;23.284;2022-11-15T07:47:19;95206.56;;;13.27;46.86
30819;BME280;17546;42.674;23.284;2022-11-15T07:49:46;95193.41;;;13.22;46.94
30819;BME280;17546;42.674;23.284;2022-11-15T07:52:13;95207.06;;;13.20;47.23
30819;BME280;17546;42.674;23.284;2022-11-15T07:54:39;95199.47;;;13.26;47.33
30819;BME280;17546;42.674;23.284;2022-11-15T07:57:05;95193.97;;;13.37;47.35
30819;BME280;17546;42.674;23.284;2022-11-15T07:59:32;95196.97;;;13.34;47.50
30819;BME280;17546;42.674;23.284;2022-11-15T08:01:57;95198.78;;;13.37;47.02
30819;BME280;17546;42.674;23.284;2022-11-15T08:04:23;95192.72;;;13.38;47.07
30819;BME280;17546;42.674;23.284;2022-11-15T08:06:48;95199.28;;;13.41;47.36
30819;BME280;17546;42.674;23.284;2022-11-15T08:09:13;95197.75;;;13.29;47.65
30819;BME280;17546;42.674;23.284;2022-11-15T08:11:39;95194.31;;;12.85;48.53
30819;BME280;17546;42.674;23.284;2022-11-15T08:14:04;95195.38;;;12.93;47.84
30819;BME280;17546;42.674;23.284;2022-11-15T08:16:30;95186.69;;;12.69;48.73
30819;BME280;17546;42.674;23.284;2022-11-15T08:18:55;95188.84;;;13.08;47.94
30819;BME280;17546;42.674;23.284;2022-11-15T08:21:21;95190.34;;;13.09;47.82
30819;BME280;17546;42.674;23.284;2022-11-15T08:23:47;95183.75;;;13.00;48.09
30819;BME280;17546;42.674;23.284;2022-11-15T08:26:12;95187.75;;;12.82;48.61
30819;BME280;17546;42.674;23.284;2022-11-15T08:28:38;95182.53;;;13.13;47.92
30819;BME280;17546;42.674;23.284;2022-11-15T08:31:04;95188.88;;;13.36;47.49
30819;BME280;17546;42.674;23.284;2022-11-15T08:33:30;95187.84;;;13.28;47.44
30819;BME280;17546;42.674;23.284;2022-11-15T08:35:57;95186.06;;;13.13;48.10
30819;BME280;17546;42.674;23.284;2022-11-15T08:38:22;95186.63;;;13.40;47.51
30819;BME280;17546;42.674;23.284;2022-11-15T08:40:50;95172.22;;;13.41;47.37
30819;BME280;17546;42.674;23.284;2022-11-15T08:43:24;95172.97;;;13.48;47.57
30819;BME280;17546;42.674;23.284;2022-11-15T08:45:49;95178.53;;;13.42;47.26
30819;BME280;17546;42.674;23.284;2022-11-15T08:48:14;95177.34;;;12.66;48.93
30819;BME280;17546;42.674;23.284;2022-11-15T08:50:40;95171.38;;;13.07;48.37
30819;BME280;17546;42.674;23.284;2022-11-15T08:53:07;95169.13;;;13.17;48.28
30819;BME280;17546;42.674;23.284;2022-11-15T08:55:36;95169.94;;;13.46;47.89
30819;BME280;17546;42.674;23.284;2022-11-15T08:58:02;95164.13;;;13.55;47.79
30819;BME280;17546;42.674;23.284;2022-11-15T09:00:28;95165.38;;;13.48;47.70
30819;BME280;17546;42.674;23.284;2022-11-15T09:02:54;95150.22;;;13.60;47.48
30819;BME280;17546;42.674;23.284;2022-11-15T09:05:20;95163.09;;;13.80;47.15
30819;BME280;17546;42.674;23.284;2022-11-15T09:07:45;95151.19;;;13.85;46.94
30819;BME280;17546;42.674;23.284;2022-11-15T09:10:10;95149.16;;;13.86;47.08
30819;BME280;17546;42.674;23.284;2022-11-15T09:12:36;95152.13;;;14.11;46.53
30819;BME280;17546;42.674;23.284;2022-11-15T09:15:02;95147.34;;;14.05;46.51
30819;BME280;17546;42.674;23.284;2022-11-15T09:17:27;95144.09;;;13.90;46.68
30819;BME280;17546;42.674;23.284;2022-11-15T09:19:53;95138.75;;;14.09;46.10
30819;BME280;17546;42.674;23.284;2022-11-15T09:22:18;95132.13;;;14.18;46.08
30819;BME280;17546;42.674;23.284;2022-11-15T09:24:43;95136.19;;;14.17;45.95
30819;BME280;17546;42.674;23.284;2022-11-15T09:27:09;95127.84;;;14.05;46.35
30819;BME280;17546;42.674;23.284;2022-11-15T09:29:34;95121.56;;;13.94;46.45
30819;BME280;17546;42.674;23.284;2022-11-15T09:32:00;95125.06;;;14.00;46.64
30819;BME280;17546;42.674;23.284;2022-11-15T09:34:25;95127.84;;;14.00;46.46
30819;BME280;17546;42.674;23.284;2022-11-15T09:36:51;95125.03;;;14.22;46.15
30819;BME280;17546;42.674;23.284;2022-11-15T09:39:16;95112.59;;;14.29;45.35
30819;BME280;17546;42.674;23.284;2022-11-15T09:42:09;95111.59;;;14.26;45.50
30819;BME280;17546;42.674;23.284;2022-11-15T09:50:39;95102.03;;;13.99;45.98
30819;BME280;17546;42.674;23.284;2022-11-15T09:53:22;95101.50;;;14.18;45.94
30819;BME280;17546;42.674;23.284;2022-11-15T09:56:09;95095.31;;;14.36;45.66
30819;BME280;17546;42.674;23.284;2022-11-15T10:04:15;95082.59;;;13.71;46.73
30819;BME280;17546;42.674;23.284;2022-11-15T10:07:36;95076.19;;;14.10;46.18
30819;BME280;17546;42.674;23.284;2022-11-15T10:12:13;95068.00;;;14.82;45.42
30819;BME280;17546;42.674;23.284;2022-11-15T10:14:39;95065.91;;;14.88;45.17
30819;BME280;17546;42.674;23.284;2022-11-15T10:20:26;95058.19;;;15.05;45.09
30819;BME280;17546;42.674;23.284;2022-11-15T10:22:59;95055.19;;;14.62;45.54
30819;BME280;17546;42.674;23.284;2022-11-15T10:25:26;95057.53;;;13.71;47.47
30819;BME280;17546;42.674;23.284;2022-11-15T10:28:13;95046.97;;;14.34;46.45
30819;BME280;17546;42.674;23.284;2022-11-15T10:30:49;95045.91;;;15.20;44.50
30819;BME280;17546;42.674;23.284;2022-11-15T10:33:44;95037.75;;;14.92;44.67
30819;BME280;17546;42.674;23.284;2022-11-15T10:39:04;95021.19;;;15.29;43.77
30819;BME280;17546;42.674;23.284;2022-11-15T10:41:37;95028.69;;;15.16;44.29
30819;BME280;17546;42.674;23.284;2022-11-15T10:49:21;95003.59;;;15.89;42.89
30819;BME280;17546;42.674;23.284;2022-11-15T10:51:53;95009.59;;;15.99;42.76
30819;BME280;17546;42.674;23.284;2022-11-15T10:57:10;95008.03;;;16.23;41.85
30819;BME280;17546;42.674;23.284;2022-11-15T10:59:37;94999.97;;;16.38;41.45
30819;BME280;17546;42.674;23.284;2022-11-15T11:04:58;94989.69;;;16.27;41.51
30819;BME280;17546;42.674;23.284;2022-11-15T11:07:29;94974.56;;;15.24;43.52
30819;BME280;17546;42.674;23.284;2022-11-15T11:09:59;94980.53;;;16.27;42.13
30819;BME280;17546;42.674;23.284;2022-11-15T11:12:30;94984.22;;;16.35;41.59
30819;BME280;17546;42.674;23.284;2022-11-15T11:14:57;94978.34;;;15.52;43.29
30819;BME280;17546;42.674;23.284;2022-11-15T11:17:28;94975.59;;;15.95;42.46
30819;BME280;17546;42.674;23.284;2022-11-15T11:23:06;94956.44;;;16.43;41.38
30819;BME280;17546;42.674;23.284;2022-11-15T11:34:01;94940.59;;;15.69;42.47
30819;BME280;17546;42.674;23.284;2022-11-15T11:36:57;94937.31;;;16.09;41.89
30819;BME280;17546;42.674;23.284;2022-11-15T11:47:24;94913.44;;;16.27;41.70
30819;BME280;17546;42.674;23.284;2022-11-15T11:50:19;94907.56;;;16.11;41.85
30819;BME280;17546;42.674;23.284;2022-11-15T11:55:57;94898.25;;;16.22;41.73
30819;BME280;17546;42.674;23.284;2022-11-15T11:58:50;94893.00;;;16.19;41.93
30819;BME280;17546;42.674;23.284;2022-11-15T12:01:23;94888.22;;;16.32;41.44
30819;BME280;17546;42.674;23.284;2022-11-15T12:04:08;94879.38;;;16.28;41.87
30819;BME280;17546;42.674;23.284;2022-11-15T12:07:08;94877.63;;;16.58;41.38
30819;BME280;17546;42.674;23.284;2022-11-15T12:09:35;94872.78;;;16.45;41.24
30819;BME280;17546;42.674;23.284;2022-11-15T12:12:11;94874.47;;;16.35;41.39
30819;BME280;17546;42.674;23.284;2022-11-15T12:17:29;94872.81;;;16.26;41.74
30819;BME280;17546;42.674;23.284;2022-11-15T12:19:59;94863.28;;;16.35;41.25
30819;BME280;17546;42.674;23.284;2022-11-15T12:30:40;94850.31;;;16.50;41.26
30819;BME280;17546;42.674;23.284;2022-11-15T12:33:37;94855.06;;;16.23;41.65
30819;BME280;17546;42.674;23.284;2022-11-15T12:36:05;94856.09;;;15.88;42.32
30819;BME280;17546;42.674;23.284;2022-11-15T12:38:58;94837.19;;;16.13;41.92
30819;BME280;17546;42.674;23.284;2022-11-15T12:41:32;94837.66;;;16.30;41.68
30819;BME280;17546;42.674;23.284;2022-11-15T12:43:58;94839.97;;;16.45;41.52
30819;BME280;17546;42.674;23.284;2022-11-15T12:49:01;94833.00;;;16.52;41.38
30819;BME280;17546;42.674;23.284;2022-11-15T12:59:56;94828.56;;;16.43;41.58
30819;BME280;17546;42.674;23.284;2022-11-15T13:02:35;94820.81;;;15.66;43.14
30819;BME280;17546;42.674;23.284;2022-11-15T13:17:38;94806.47;;;16.26;41.96
30819;BME280;17546;42.674;23.284;2022-11-15T13:33:34;94791.03;;;16.39;42.06
30819;BME280;17546;42.674;23.284;2022-11-15T13:36:12;94796.88;;;16.54;41.61
30819;BME280;17546;42.674;23.284;2022-11-15T13:38:42;94796.25;;;16.74;41.39
30819;BME280;17546;42.674;23.284;2022-11-15T13:41:20;94798.56;;;16.89;41.21
30819;BME280;17546;42.674;23.284;2022-11-15T13:43:46;94791.53;;;16.69;41.47
30819;BME280;17546;42.674;23.284;2022-11-15T13:48:38;94787.69;;;16.86;41.11
30819;BME280;17546;42.674;23.284;2022-11-15T13:53:47;94795.53;;;16.87;41.42
30819;BME280;17546;42.674;23.284;2022-11-15T13:56:19;94788.34;;;16.92;41.07
30819;BME280;17546;42.674;23.284;2022-11-15T13:58:46;94787.47;;;16.84;41.30
30819;BME280;17546;42.674;23.284;2022-11-15T14:01:20;94789.50;;;16.97;41.08
30819;BME280;17546;42.674;23.284;2022-11-15T14:04:09;94784.13;;;16.99;41.00
30819;BME280;17546;42.674;23.284;2022-11-15T14:06:44;94782.53;;;16.90;41.16
30819;BME280;17546;42.674;23.284;2022-11-15T14:11:37;94785.75;;;17.07;40.95
30819;BME280;17546;42.674;23.284;2022-11-15T14:14:12;94780.59;;;17.11;40.79
30819;BME280;17546;42.674;23.284;2022-11-15T14:16:39;94789.94;;;17.14;40.86
30819;BME280;17546;42.674;23.284;2022-11-15T14:19:08;94781.75;;;17.16;40.97
30819;BME280;17546;42.674;23.284;2022-11-15T14:21:34;94781.44;;;17.20;41.08
30819;BME280;17546;42.674;23.284;2022-11-15T14:24:21;94781.03;;;16.89;41.23
30819;BME280;17546;42.674;23.284;2022-11-15T14:26:47;94775.41;;;16.76;41.44
30819;BME280;17546;42.674;23.284;2022-11-15T14:29:30;94779.00;;;16.44;42.12
30819;BME280;17546;42.674;23.284;2022-11-15T14:32:15;94782.69;;;16.52;41.88
30819;BME280;17546;42.674;23.284;2022-11-15T14:34:42;94773.63;;;16.46;42.08
30819;BME280;17546;42.674;23.284;2022-11-15T14:37:31;94779.53;;;16.42;42.21
30819;BME280;17546;42.674;23.284;2022-11-15T14:40:00;94781.94;;;16.51;41.89
30819;BME280;17546;42.674;23.284;2022-11-15T14:42:26;94783.50;;;16.33;42.37
30819;BME280;17546;42.674;23.284;2022-11-15T14:44:52;94781.78;;;16.44;42.10
30819;BME280;17546;42.674;23.284;2022-11-15T14:47:18;94779.94;;;16.33;42.36
30819;BME280;17546;42.674;23.284;2022-11-15T14:49:44;94789.88;;;16.47;42.03
30819;BME280;17546;42.674;23.284;2022-11-15T14:52:38;94784.13;;;16.26;42.58
30819;BME280;17546;42.674;23.284;2022-11-15T14:55:14;94768.28;;;16.16;42.68
30819;BME280;17546;42.674;23.284;2022-11-15T14:57:42;94784.31;;;16.15;42.74
30819;BME280;17546;42.674;23.284;2022-11-15T15:00:07;94781.31;;;16.26;42.54
30819;BME280;17546;42.674;23.284;2022-11-15T15:02:35;94778.63;;;16.21;42.60
30819;BME280;17546;42.674;23.284;2022-11-15T15:05:00;94777.00;;;16.12;42.76
30819;BME280;17546;42.674;23.284;2022-11-15T15:07:28;94778.94;;;16.17;42.68
30819;BME280;17546;42.674;23.284;2022-11-15T15:09:53;94768.47;;;16.04;42.83
30819;BME280;17546;42.674;23.284;2022-11-15T15:12:22;94771.81;;;16.03;42.92
30819;BME280;17546;42.674;23.284;2022-11-15T15:14:49;94775.22;;;15.96;42.99